createdAt,value
2023-02-27T00:01:33.953Z,0.07
2023-02-27T00:06:36.385Z,0.03
2023-02-27T00:11:38.586Z,0.00
2023-02-27T00:16:40.272Z,0.00
2023-02-27T00:21:44.438Z,-0.02
2023-02-27T00:26:46.223Z,-0.03
2023-02-27T00:31:47.951Z,-0.06
2023-02-27T00:36:49.938Z,-0.06
2023-02-27T00:41:51.712Z,-0.08
2023-02-27T00:46:53.421Z,-0.08
2023-02-27T00:51:55.232Z,-0.06
2023-02-27T00:56:58.826Z,-0.05
2023-02-27T01:02:00.551Z,-0.04
2023-02-27T01:07:03.724Z,-0.03
2023-02-27T01:12:05.793Z,-0.04
2023-02-27T01:17:07.536Z,0.00
2023-02-27T01:22:09.243Z,0.01
2023-02-27T01:27:11.184Z,0.08
2023-02-27T01:32:12.946Z,0.06
2023-02-27T01:37:14.780Z,0.08
2023-02-27T01:42:24.343Z,0.07
2023-02-27T01:47:26.166Z,0.12
2023-02-27T01:52:31.281Z,0.13
2023-02-27T01:57:32.975Z,0.13
2023-02-27T02:02:38.692Z,0.16
2023-02-27T02:07:41.874Z,0.15
2023-02-27T02:12:45.072Z,0.17
2023-02-27T02:18:00.091Z,0.18
2023-02-27T02:23:39.640Z,0.19
2023-02-27T02:28:59.780Z,0.20
2023-02-27T02:34:25.737Z,0.18
2023-02-27T02:39:37.530Z,0.20
2023-02-27T02:45:00.142Z,0.19
2023-02-27T02:50:23.964Z,0.18
2023-02-27T02:55:40.864Z,0.21
2023-02-27T03:00:48.934Z,0.18
2023-02-27T03:06:12.841Z,0.20
2023-02-27T03:11:14.754Z,0.20
2023-02-27T03:16:29.803Z,0.19
2023-02-27T03:21:38.957Z,0.18
2023-02-27T03:26:44.652Z,0.16
2023-02-27T03:31:56.606Z,0.15
2023-02-27T03:37:21.996Z,0.15
2023-02-27T03:42:39.507Z,0.15
2023-02-27T03:47:44.396Z,0.13
2023-02-27T03:52:46.507Z,0.13
2023-02-27T03:57:51.779Z,0.13
2023-02-27T04:02:56.213Z,0.07
2023-02-27T04:08:19.111Z,0.03
2023-02-27T04:13:26.788Z,-0.01
2023-02-27T04:18:56.661Z,-0.02
2023-02-27T04:24:13.615Z,-0.03
2023-02-27T04:29:18.614Z,-0.03
2023-02-27T04:34:40.962Z,-0.01
2023-02-27T04:39:53.389Z,-0.06
2023-02-27T04:45:00.594Z,-0.04
2023-02-27T04:50:19.571Z,-0.07
2023-02-27T04:55:30.319Z,-0.06
2023-02-27T05:00:34.641Z,-0.05
2023-02-27T05:05:38.325Z,-0.03
2023-02-27T05:10:46.772Z,-0.07
2023-02-27T05:15:58.168Z,-0.09
2023-02-27T05:21:12.496Z,-0.12
2023-02-27T05:26:24.262Z,-0.15
2023-02-27T05:31:34.426Z,-0.11
2023-02-27T05:36:57.234Z,-0.08
2023-02-27T05:42:04.821Z,-0.11
2023-02-27T05:47:12.892Z,-0.10
2023-02-27T05:52:18.179Z,-0.08
2023-02-27T05:57:29.009Z,-0.05
2023-02-27T06:02:30.893Z,-0.01
2023-02-27T06:07:33.848Z,-0.01
2023-02-27T06:12:35.638Z,-0.04
2023-02-27T06:17:37.371Z,-0.03
2023-02-27T06:22:39.045Z,0.01
2023-02-27T06:27:40.873Z,0.31
2023-02-27T06:32:42.593Z,0.55
2023-02-27T06:37:44.539Z,0.64
2023-02-27T06:42:46.610Z,0.64
2023-02-27T06:47:48.304Z,0.57
2023-02-27T06:52:50.110Z,0.51
2023-02-27T06:57:51.781Z,0.61
2023-02-27T07:02:53.582Z,0.57
2023-02-27T07:07:56.632Z,0.65
2023-02-27T07:13:00.344Z,0.66
2023-02-27T07:18:02.663Z,0.78
2023-02-27T07:23:04.814Z,0.71
2023-02-27T07:28:06.777Z,0.77
2023-02-27T07:33:08.818Z,0.71
2023-02-27T07:38:10.634Z,0.66
2023-02-27T07:43:12.685Z,0.72
2023-02-27T07:48:14.393Z,0.75
2023-02-27T07:53:16.178Z,0.84
2023-02-27T07:58:18.187Z,0.89
2023-02-27T08:03:19.871Z,0.94
2023-02-27T08:08:21.920Z,0.98
2023-02-27T08:13:35.947Z,1.05
2023-02-27T08:18:45.246Z,1.10
2023-02-27T08:23:46.948Z,1.13
2023-02-27T08:28:48.993Z,1.19
2023-02-27T08:33:58.035Z,1.27
2023-02-27T08:39:09.520Z,1.39
2023-02-27T08:44:12.908Z,1.44
2023-02-27T08:49:14.949Z,1.53
2023-02-27T08:54:16.964Z,1.63
2023-02-27T08:59:18.820Z,1.66
2023-02-27T09:04:21.017Z,1.75
2023-02-27T09:09:23.764Z,1.80
2023-02-27T09:14:25.811Z,1.79
2023-02-27T09:19:27.619Z,1.73
2023-02-27T09:24:29.500Z,1.70
2023-02-27T09:29:31.285Z,1.87
2023-02-27T09:34:33.364Z,2.07
2023-02-27T09:39:36.250Z,2.23
2023-02-27T09:44:57.625Z,2.29
2023-02-27T09:50:28.530Z,2.26
2023-02-27T09:55:34.974Z,2.31
2023-02-27T10:00:53.726Z,2.20
2023-02-27T10:06:21.384Z,2.30
2023-02-27T10:11:56.810Z,2.38
2023-02-27T10:17:03.788Z,2.37
2023-02-27T10:22:12.695Z,2.34
2023-02-27T10:27:19.281Z,2.41
2023-02-27T10:32:26.838Z,2.53
2023-02-27T10:37:30.362Z,2.76
2023-02-27T10:42:36.284Z,2.96
2023-02-27T10:47:39.683Z,2.94
2023-02-27T10:53:02.078Z,2.65
2023-02-27T10:58:05.006Z,2.63
2023-02-27T11:03:16.829Z,2.62
2023-02-27T11:08:27.362Z,2.47
2023-02-27T11:13:32.242Z,2.46
2023-02-27T11:18:36.049Z,2.42
2023-02-27T11:23:38.426Z,2.40
2023-02-27T11:28:40.277Z,2.48
2023-02-27T11:33:50.774Z,2.43
2023-02-27T11:38:55.133Z,2.56
2023-02-27T11:43:58.105Z,2.74
2023-02-27T11:49:16.696Z,2.65
2023-02-27T11:54:34.672Z,2.62
2023-02-27T11:59:58.320Z,2.78
2023-02-27T12:05:14.361Z,2.70
2023-02-27T12:10:20.579Z,2.77
2023-02-27T12:15:29.453Z,3.07
2023-02-27T12:20:57.568Z,3.59
2023-02-27T12:26:32.938Z,4.05
2023-02-27T12:31:34.707Z,3.81
2023-02-27T12:36:36.644Z,3.81
2023-02-27T12:41:50.463Z,3.75
2023-02-27T12:47:24.496Z,3.97
2023-02-27T12:52:47.938Z,3.87
2023-02-27T12:58:06.991Z,4.05
2023-02-27T13:03:27.731Z,4.32
2023-02-27T13:08:54.286Z,4.29
2023-02-27T13:14:04.022Z,3.99
2023-02-27T13:19:15.254Z,3.88
2023-02-27T13:24:26.197Z,4.00
2023-02-27T13:29:41.254Z,4.06
2023-02-27T13:34:52.355Z,4.31
2023-02-27T13:40:01.189Z,4.68
2023-02-27T13:45:06.619Z,4.74
2023-02-27T13:50:17.081Z,4.77
2023-02-27T13:55:39.993Z,4.67
2023-02-27T14:00:41.707Z,5.07
2023-02-27T14:05:46.274Z,5.08
2023-02-27T14:11:09.353Z,5.24
2023-02-27T14:16:39.760Z,5.26
2023-02-27T14:21:56.520Z,5.11
2023-02-27T14:26:59.556Z,4.75
2023-02-27T14:32:08.875Z,4.62
2023-02-27T14:37:17.148Z,4.22
2023-02-27T14:42:50.035Z,3.93
2023-02-27T14:47:53.010Z,3.68
2023-02-27T14:52:55.471Z,3.45
2023-02-27T14:58:16.080Z,3.25
2023-02-27T15:03:24.216Z,3.08
2023-02-27T15:08:32.732Z,3.04
2023-02-27T15:13:38.155Z,3.10
2023-02-27T15:18:40.664Z,3.08
2023-02-27T15:23:42.503Z,2.97
2023-02-27T15:28:44.376Z,2.90
2023-02-27T15:33:46.374Z,2.83
2023-02-27T15:39:17.257Z,2.73
2023-02-27T15:44:26.239Z,2.67
2023-02-27T15:49:28.040Z,2.69
2023-02-27T15:54:35.152Z,2.64
2023-02-27T15:59:41.927Z,2.62
2023-02-27T16:04:45.745Z,2.62
2023-02-27T16:09:54.517Z,2.54
2023-02-27T16:15:18.057Z,2.54
2023-02-27T16:20:47.612Z,2.43
2023-02-27T16:26:06.383Z,2.38
2023-02-27T16:31:23.511Z,2.32
2023-02-27T16:36:28.602Z,2.27
2023-02-27T16:41:30.438Z,2.19
2023-02-27T16:46:32.150Z,2.12
2023-02-27T16:51:34.810Z,2.09
2023-02-27T16:56:38.736Z,2.11
2023-02-27T17:01:40.697Z,2.09
2023-02-27T17:06:42.352Z,2.07
2023-02-27T17:11:44.092Z,2.01
2023-02-27T17:16:47.356Z,1.98
2023-02-27T17:21:50.484Z,2.00
2023-02-27T17:26:52.626Z,2.02
2023-02-27T17:31:54.765Z,1.95
2023-02-27T17:36:56.483Z,1.91
2023-02-27T17:41:58.155Z,1.92
2023-02-27T17:46:59.841Z,1.93
2023-02-27T17:52:01.674Z,1.91
2023-02-27T17:57:04.871Z,1.90
2023-02-27T18:02:07.913Z,1.87
2023-02-27T18:07:09.674Z,1.87
2023-02-27T18:12:11.420Z,1.86
2023-02-27T18:17:13.212Z,1.88
2023-02-27T18:22:17.984Z,1.87
2023-02-27T18:27:20.236Z,1.83
2023-02-27T18:32:21.979Z,1.78
2023-02-27T18:37:23.746Z,1.75
2023-02-27T18:42:25.472Z,1.74
2023-02-27T18:47:30.264Z,1.69
2023-02-27T18:52:33.224Z,1.69
2023-02-27T18:57:36.480Z,1.73
2023-02-27T19:02:41.743Z,1.72
2023-02-27T19:07:44.000Z,1.75
2023-02-27T19:12:49.754Z,1.77
2023-02-27T19:17:51.450Z,1.76
2023-02-27T19:22:53.646Z,1.76
2023-02-27T19:27:56.952Z,1.74
2023-02-27T19:32:58.757Z,1.71
2023-02-27T19:38:00.422Z,1.74
2023-02-27T19:43:02.263Z,1.73
2023-02-27T19:48:04.171Z,1.73
2023-02-27T19:53:05.883Z,1.72
2023-02-27T19:58:08.032Z,1.69
2023-02-27T20:03:09.942Z,1.69
2023-02-27T20:08:12.084Z,1.64
2023-02-27T20:13:13.904Z,1.68
2023-02-27T20:18:15.572Z,1.59
2023-02-27T20:23:17.740Z,1.49
2023-02-27T20:28:19.842Z,1.47
2023-02-27T20:33:21.521Z,1.45
2023-02-27T20:38:23.282Z,1.49
2023-02-27T20:43:25.052Z,1.48
2023-02-27T20:48:26.738Z,1.45
2023-02-27T20:53:28.445Z,1.39
2023-02-27T20:58:30.603Z,1.39
2023-02-27T21:03:38.634Z,1.39
2023-02-27T21:08:46.733Z,1.44
2023-02-27T21:13:50.015Z,1.45
2023-02-27T21:18:53.572Z,1.40
2023-02-27T21:23:55.915Z,1.39
2023-02-27T21:29:00.787Z,1.34
2023-02-27T21:34:05.606Z,1.31
2023-02-27T21:39:07.807Z,1.31
2023-02-27T21:44:13.237Z,1.31
2023-02-27T21:49:17.614Z,1.29
2023-02-27T21:54:20.408Z,1.25
2023-02-27T21:59:22.188Z,1.18
2023-02-27T22:04:24.394Z,1.10
2023-02-27T22:09:26.093Z,1.06
2023-02-27T22:14:27.979Z,1.03
2023-02-27T22:19:29.639Z,1.00
2023-02-27T22:24:31.608Z,0.94
2023-02-27T22:29:33.290Z,0.89
2023-02-27T22:34:35.054Z,0.84
2023-02-27T22:39:36.859Z,0.86
2023-02-27T22:44:38.534Z,0.84
2023-02-27T22:49:40.248Z,0.86
2023-02-27T22:54:42.017Z,0.87
2023-02-27T22:59:43.689Z,0.83
2023-02-27T23:04:45.379Z,0.80
2023-02-27T23:09:47.082Z,0.81
2023-02-27T23:14:48.781Z,0.80
2023-02-27T23:19:50.438Z,0.81
2023-02-27T23:24:52.290Z,0.75
2023-02-27T23:29:54.197Z,0.70
2023-02-27T23:34:55.974Z,0.70
2023-02-27T23:39:58.040Z,0.68
2023-02-27T23:45:22.713Z,0.63
2023-02-27T23:50:27.875Z,0.57
2023-02-27T23:55:32.400Z,0.52
